AirNav   Pilot Hours Calculator
 
 1397 users online  

PN77 Snyder Office Heliport
Kittanning, Pennsylvania, USA

GOING TO KITTANNING?


FAA INFORMATION EFFECTIVE 05 DECEMBER 2019

Location

FAA Identifier: PN77
Lat/Long: 40-49-01.0000N 079-33-56.0000W
40-49.016667N 079-33.933333W
40.8169444,-79.5655556
(estimated)
Elevation: 1160 ft. / 354 m (estimated)
From city: 2 miles E of KITTANNING, PA
Time zone: UTC -5 (UTC -4 during Daylight Saving Time)
Zip code: 16201

Heliport Operations

Heliport use: Private use. Permission required prior to landing
Activation date: 11/2006
Control tower: no
ARTCC: CLEVELAND CENTER
FSS: ALTOONA FLIGHT SERVICE STATION
Attendance: UNATNDD
Wind indicator: yes
Segmented circle: no

Heliport Communications

WX AWOS-3PT at BTP (18 nm W): 121.450 (724-586-6434)

Nearby radio navigation aids

VOR radial/distance  VOR name  Freq  Var
CIPr200/20.4CLARION VOR/DME112.9006W
EWCr099/29.3ELLWOOD CITY VOR/DME115.8008W
AGCr043/38.9ALLEGHENY VOR/DME110.0009W
FKLr167/(39.5)FRANKLIN VOR109.6006W

Heliport Services

Runway Information

Helipad H1

Dimensions: 50 x 50 ft. / 15 x 15 m
Surface: turf
Traffic pattern: leftleft

Heliport Ownership and Management from official FAA records

Ownership: Privately-owned
Owner: BUFFALO VALLEY, LTD
ONE GLADE PARK EAST, P.O. BOX 1022
KITTANNING, PA 16201
Phone 724-548-8101
Manager: MARK A SNYDER
ONE GLADE PARK EAST
KITTANNING, PA 16201
Phone 724-548-8101

Additional Remarks

A52-H1 70 FT TREES NORTH & 25 FT PLINES EAST OF HELIPAD.
FOR CD CTC CLEVELAND ARTCC AT 440-774-0234.

Instrument Procedures

There are no published instrument procedures at PN77.

Some nearby airports with instrument procedures:

6P7 - McVille Airport (5 nm S)
KBTP - Pittsburgh/Butler Regional Airport (18 nm W)
KIDI - Indiana County Airport (Jimmy Stewart Field) (24 nm SE)
KAXQ - Clarion County Airport (25 nm N)
KPJC - Zelienople Municipal Airport (27 nm W)
 
Loc | Ops | Rwys | IFR | FBO | Links
Com | Nav | Svcs | Stats | Notes
Area around PN77 (Snyder Office Heliport)
 
Road maps at: MapQuest Bing Google
 
Aerial photo
No photo
 
Sectional chart

 
Airport distance calculator
Flying to Snyder Office Heliport? Find the distance to fly.

From to PN77

Sunrise and sunset
Times for 06-Dec-2019
 Local
(UTC-5)
 Zulu
(UTC)
Morning civil twilight06:5811:58
Sunrise07:2912:29
Sunset16:5021:50
Evening civil twilight17:2022:20

Current date and time
Zulu (UTC)  06-Dec-2019 15:40:16
Local (UTC-5)  06-Dec-2019 10:40:16
 
METAR
KBTP 
18nm W 
061456Z AUTO 22007KT 10SM SCT065 OVC080 05/M02 A2998 RMK AO2 RAB07E18 SLP169 P0000 60000 T00501022 56007
KIDI 
25nm SE 
061515Z AUTO 23010KT 10SM FEW050 SCT060 BKN070 05/M02 A3001 RMK A01
KPJC 
27nm W 
061515Z AUTO 24005KT 10SM OVC075 06/M01 A2999 RMK AO2
KAGC 
32nm SW 
061453Z 20009KT 10SM SCT080 OVC100 06/M03 A2998 RMK AO2 SLP168 T00561028 56007
KLBE 
34nm S 
061453Z 21012G22KT 10SM BKN075 07/M03 A3000
TAF
KAGC 
32nm SW 
061132Z 0612/0712 21006KT P6SM OVC080 WS020/25035KT FM061900 27010G20KT P6SM OVC025 FM070100 33008KT P6SM SCT025
KLBE 
34nm S 
061405Z 0614/0712 21017G21KT P6SM BKN100 WS020/25035KT FM062100 27010G22KT P6SM -RA OVC015 FM070000 33010G18KT P6SM OVC015
KFKL 
36nm N 
061132Z 0612/0712 20006KT P6SM OVC050 WS020/26035KT FM061400 25011G18KT P6SM OVC100 FM061700 27010G21KT P6SM OVC015 FM070200 31005KT P6SM OVC025
KDUJ 
37nm NE 
061132Z 0612/0712 20006KT P6SM OVC050 WS020/26035KT FM061400 25011G18KT P6SM OVC100 FM061700 27010G21KT P6SM OVC015 FM070200 31005KT P6SM OVC025
KPIT 
37nm SW 
061132Z 0612/0718 21006KT P6SM OVC080 WS020/25035KT FM061900 27010G20KT P6SM OVC025 FM070100 33008KT P6SM SCT025 FM071500 VRB04KT P6SM SCT100
KBVI 
38nm W 
061132Z 0612/0712 21006KT P6SM OVC080 WS020/25035KT FM061900 27010G20KT P6SM OVC015 FM070200 33008KT P6SM SCT015
NOTAMs
Click for the latest NOTAMs
NOTAMs are issued by the DoD/FAA and will open in a separate window not controlled by AirNav.

 

 
 

Would you like to see your business listed on this page?

 If your business provides an interesting product or service to pilots, flight crews, aircraft, or users of the Snyder Office Heliport, you should consider listing it here.  To start the listing process, click on the button below
 
Add a business
 

Other Pages about Snyder Office Heliport

Update a link
 
Copyright © AirNav, LLC. All rights reserved. Privacy Policy  Contact